createdAt,value
2017-04-18T00:00:01.488Z,72859
2017-04-18T00:00:11.000Z,72862
2017-04-18T00:00:21.107Z,72864
2017-04-18T00:00:30.907Z,72861
2017-04-18T00:00:40.998Z,72863
2017-04-18T00:00:51.087Z,72863
2017-04-18T00:01:01.174Z,72859
2017-04-18T00:01:11.262Z,72859
2017-04-18T00:01:21.062Z,72858
2017-04-18T00:01:31.149Z,72862
2017-04-18T00:01:41.233Z,72865
2017-04-18T00:01:51.318Z,72866
2017-04-18T00:02:01.404Z,72864
2017-04-18T00:02:11.210Z,72862
2017-04-18T00:02:21.301Z,72872
2017-04-18T00:02:31.388Z,72860
2017-04-18T00:02:41.482Z,72845
2017-04-18T00:02:51.316Z,72858
2017-04-18T00:03:01.405Z,72853
2017-04-18T00:03:11.496Z,72837
2017-04-18T00:03:21.580Z,72842
2017-04-18T00:03:31.670Z,72844
2017-04-18T00:03:41.760Z,72857
2017-04-18T00:03:51.565Z,72865
2017-04-18T00:04:01.654Z,72864
2017-04-18T00:04:11.755Z,72845
2017-04-18T00:04:21.843Z,72836
2017-04-18T00:04:31.930Z,72832
2017-04-18T00:04:41.730Z,72831
2017-04-18T00:04:51.819Z,72853
2017-04-18T00:05:01.905Z,72862
2017-04-18T00:05:11.996Z,72849
2017-04-18T00:05:22.084Z,72857
2017-04-18T00:05:32.172Z,72856
2017-04-18T00:05:41.693Z,72852
2017-04-18T00:05:51.783Z,72853
2017-04-18T00:06:01.867Z,72858
2017-04-18T00:06:11.956Z,72853
2017-04-18T00:06:22.047Z,72853
2017-04-18T00:06:31.847Z,72848
2017-04-18T00:06:41.938Z,72854
2017-04-18T00:06:52.029Z,72856
2017-04-18T00:07:02.115Z,72843
2017-04-18T00:07:12.502Z,72847
2017-04-18T00:07:22.591Z,72853
2017-04-18T00:07:32.679Z,72858
2017-04-18T00:07:42.771Z,72859
2017-04-18T00:07:52.862Z,72851
2017-04-18T00:08:02.955Z,72845
2017-04-18T00:08:13.046Z,72842
2017-04-18T00:08:23.136Z,72846
2017-04-18T00:08:32.935Z,72851
2017-04-18T00:08:42.738Z,72855
2017-04-18T00:08:52.836Z,72850
2017-04-18T00:09:02.925Z,72854
2017-04-18T00:09:12.733Z,72852
2017-04-18T00:09:22.830Z,72850
2017-04-18T00:09:32.983Z,72836
2017-04-18T00:09:43.074Z,72828
2017-04-18T00:09:53.165Z,72831
2017-04-18T00:10:02.974Z,72829
2017-04-18T00:10:13.063Z,72832
2017-04-18T00:10:22.868Z,72830
2017-04-18T00:10:33.122Z,72826
2017-04-18T00:10:43.214Z,72824
2017-04-18T00:10:53.326Z,72825
2017-04-18T00:11:03.412Z,72838
2017-04-18T00:11:13.497Z,72839
2017-04-18T00:11:23.589Z,72848
2017-04-18T00:11:33.689Z,72853
2017-04-18T00:11:43.879Z,72857
2017-04-18T00:11:53.968Z,72853
2017-04-18T00:12:03.766Z,72848
2017-04-18T00:12:13.855Z,72838
2017-04-18T00:12:23.945Z,72842
2017-04-18T00:12:34.034Z,72840
2017-04-18T00:12:43.841Z,72834
2017-04-18T00:12:53.931Z,72834
2017-04-18T00:13:03.737Z,72843
2017-04-18T00:13:13.826Z,72842
2017-04-18T00:13:23.922Z,72836
2017-04-18T00:13:34.011Z,72832
2017-04-18T00:13:44.125Z,72831
2017-04-18T00:13:54.374Z,72828
2017-04-18T00:14:03.889Z,72831
2017-04-18T00:14:13.991Z,72828
2017-04-18T00:14:23.518Z,72826
2017-04-18T00:14:33.318Z,72821
2017-04-18T00:14:43.403Z,72828
2017-04-18T00:14:53.494Z,72832
2017-04-18T00:15:03.355Z,72833
2017-04-18T00:15:13.161Z,72841
2017-04-18T00:15:22.962Z,72840
2017-04-18T00:15:33.055Z,72842
2017-04-18T00:15:43.139Z,72836
2017-04-18T00:15:53.229Z,72835
2017-04-18T00:16:03.314Z,72837
2017-04-18T00:16:13.498Z,72841
2017-04-18T00:16:23.588Z,72834
2017-04-18T00:16:33.386Z,72839
2017-04-18T00:16:43.473Z,72834
2017-04-18T00:16:53.275Z,72835
2017-04-18T00:17:03.362Z,72833
2017-04-18T00:17:13.169Z,72836
2017-04-18T00:17:23.365Z,72840
2017-04-18T00:17:33.455Z,72834
2017-04-18T00:17:43.257Z,72828
2017-04-18T00:17:53.348Z,72829
2017-04-18T00:18:03.440Z,72830
2017-04-18T00:18:12.951Z,72830
2017-04-18T00:18:22.781Z,72831
2017-04-18T00:18:32.869Z,72832
2017-04-18T00:18:42.677Z,72839
2017-04-18T00:18:52.484Z,72842
2017-04-18T00:19:02.310Z,72844
2017-04-18T00:19:12.410Z,72844
2017-04-18T00:19:22.505Z,72847
2017-04-18T00:19:32.837Z,72852
2017-04-18T00:19:42.926Z,72851
2017-04-18T00:19:52.725Z,72845
2017-04-18T00:20:02.824Z,72841
2017-04-18T00:20:12.921Z,72843
2017-04-18T00:20:23.007Z,72840
2017-04-18T00:20:33.099Z,72845
2017-04-18T00:20:43.305Z,72842
2017-04-18T00:20:53.417Z,72841
2017-04-18T00:21:03.506Z,72843
2017-04-18T00:21:13.602Z,72838
2017-04-18T00:21:23.692Z,72837
2017-04-18T00:21:33.781Z,72833
2017-04-18T00:21:43.868Z,72832
2017-04-18T00:21:53.956Z,72835
2017-04-18T00:22:04.045Z,72834
2017-04-18T00:22:14.156Z,72837
2017-04-18T00:22:24.257Z,72837
2017-04-18T00:22:34.371Z,72829
2017-04-18T00:22:44.465Z,72820
2017-04-18T00:22:54.268Z,72823
2017-04-18T00:23:04.604Z,72826
2017-04-18T00:23:14.689Z,72826
2017-04-18T00:23:24.495Z,72817
2017-04-18T00:23:34.584Z,72805
2017-04-18T00:23:44.686Z,72806
2017-04-18T00:23:54.485Z,72818
2017-04-18T00:24:04.581Z,72824
2017-04-18T00:24:14.093Z,72829
2017-04-18T00:24:23.897Z,72832
2017-04-18T00:24:33.701Z,72833
2017-04-18T00:24:43.798Z,72834
2017-04-18T00:24:53.893Z,72828
2017-04-18T00:25:03.984Z,72828
2017-04-18T00:25:14.083Z,72832
2017-04-18T00:25:24.273Z,72834
2017-04-18T00:25:34.073Z,72836
2017-04-18T00:25:43.874Z,72832
2017-04-18T00:25:53.960Z,72826
2017-04-18T00:26:04.047Z,72823
2017-04-18T00:26:14.142Z,72829
2017-04-18T00:26:24.229Z,72829
2017-04-18T00:26:33.746Z,72821
2017-04-18T00:26:43.835Z,72810
2017-04-18T00:26:53.919Z,72815
2017-04-18T00:27:04.018Z,72813
2017-04-18T00:27:14.103Z,72807
2017-04-18T00:27:24.193Z,72813
2017-04-18T00:27:34.250Z,72799
2017-04-18T00:27:44.357Z,72805
2017-04-18T00:27:54.450Z,72809
2017-04-18T00:28:04.545Z,72805
2017-04-18T00:28:14.670Z,72803
2017-04-18T00:28:24.768Z,72819
2017-04-18T00:28:34.860Z,72821
2017-04-18T00:28:44.663Z,72819
2017-04-18T00:28:54.754Z,72818
2017-04-18T00:29:04.849Z,72819
2017-04-18T00:29:14.658Z,72816
2017-04-18T00:29:24.754Z,72821
2017-04-18T00:29:34.849Z,72817
2017-04-18T00:29:44.938Z,72820
2017-04-18T00:29:54.899Z,72823
2017-04-18T00:30:04.988Z,72822
2017-04-18T00:30:15.081Z,72818
2017-04-18T00:30:24.883Z,72814
2017-04-18T00:30:34.687Z,72806
2017-04-18T00:30:44.773Z,72810
2017-04-18T00:30:54.856Z,72815
2017-04-18T00:31:04.657Z,72816
2017-04-18T00:31:14.747Z,72816
2017-04-18T00:31:24.549Z,72818
2017-04-18T00:31:34.637Z,72821
2017-04-18T00:31:44.726Z,72816
2017-04-18T00:31:54.822Z,72818
2017-04-18T00:32:04.631Z,72822
2017-04-18T00:32:14.953Z,72824
2017-04-18T00:32:25.062Z,72820
2017-04-18T00:32:35.153Z,72821
2017-04-18T00:32:44.957Z,72821
2017-04-18T00:32:55.050Z,72815
2017-04-18T00:33:05.176Z,72819
2017-04-18T00:33:15.708Z,72814
2017-04-18T00:33:25.798Z,72816
2017-04-18T00:33:35.890Z,72818
2017-04-18T00:33:45.701Z,72815
2017-04-18T00:33:55.803Z,72819
2017-04-18T00:34:05.898Z,72820
2017-04-18T00:34:15.708Z,72816
2017-04-18T00:34:25.509Z,72813
2017-04-18T00:34:35.601Z,72821
2017-04-18T00:34:45.691Z,72825
2017-04-18T00:34:55.779Z,72819
2017-04-18T00:35:05.870Z,72813
2017-04-18T00:35:15.952Z,72817
2017-04-18T00:35:25.757Z,72815
2017-04-18T00:35:36.011Z,72821
2017-04-18T00:35:45.524Z,72822
2017-04-18T00:35:55.607Z,72826
2017-04-18T00:36:05.701Z,72827
2017-04-18T00:36:15.792Z,72828
2017-04-18T00:36:25.880Z,72822
2017-04-18T00:36:35.678Z,72821
2017-04-18T00:36:45.479Z,72820
2017-04-18T00:36:55.564Z,72820
2017-04-18T00:37:05.662Z,72814
2017-04-18T00:37:15.752Z,72817
2017-04-18T00:37:25.841Z,72817
2017-04-18T00:37:35.927Z,72818
2017-04-18T00:37:46.136Z,72816
2017-04-18T00:37:55.943Z,72816
2017-04-18T00:38:05.745Z,72812
2017-04-18T00:38:15.554Z,72809
2017-04-18T00:38:25.356Z,72805
2017-04-18T00:38:35.456Z,72806
2017-04-18T00:38:44.973Z,72805
2017-04-18T00:38:55.188Z,72810
2017-04-18T00:39:05.274Z,72813
2017-04-18T00:39:15.373Z,72814
2017-04-18T00:39:25.470Z,72812
2017-04-18T00:39:35.563Z,72818
2017-04-18T00:39:45.367Z,72816
2017-04-18T00:39:55.170Z,72815
2017-04-18T00:40:05.271Z,72819
2017-04-18T00:40:14.788Z,72823
2017-04-18T00:40:24.875Z,72821
2017-04-18T00:40:34.672Z,72820
2017-04-18T00:40:44.758Z,72814
2017-04-18T00:40:54.561Z,72816
2017-04-18T00:41:04.715Z,72818
2017-04-18T00:41:14.805Z,72821
2017-04-18T00:41:25.011Z,72818
2017-04-18T00:41:35.100Z,72820
2017-04-18T00:41:45.190Z,72820
2017-04-18T00:41:55.280Z,72820
2017-04-18T00:42:05.370Z,72820
2017-04-18T00:42:15.460Z,72817
2017-04-18T00:42:25.550Z,72817
2017-04-18T00:42:35.637Z,72812
2017-04-18T00:42:44.876Z,72808
2017-04-18T00:42:54.963Z,72809
2017-04-18T00:43:05.089Z,72806
2017-04-18T00:43:15.180Z,72802
2017-04-18T00:43:25.275Z,72806
2017-04-18T00:43:35.365Z,72803
2017-04-18T00:43:45.469Z,72798
2017-04-18T00:43:55.558Z,72799
2017-04-18T00:44:05.645Z,72795
2017-04-18T00:44:15.158Z,72792
2017-04-18T00:44:25.242Z,72801
2017-04-18T00:44:35.331Z,72799
2017-04-18T00:44:45.140Z,72795
2017-04-18T00:44:54.939Z,72797
2017-04-18T00:45:05.041Z,72801
2017-04-18T00:45:15.129Z,72804
2017-04-18T00:45:25.214Z,72805
2017-04-18T00:45:35.303Z,72802
2017-04-18T00:45:45.390Z,72800
2017-04-18T00:45:55.476Z,72799
2017-04-18T00:46:05.570Z,72795
2017-04-18T00:46:15.662Z,72800
2017-04-18T00:46:25.747Z,72795
2017-04-18T00:46:35.833Z,72797
2017-04-18T00:46:45.689Z,72794
2017-04-18T00:46:55.774Z,72792
2017-04-18T00:47:05.868Z,72794
2017-04-18T00:47:15.958Z,72791
2017-04-18T00:47:26.051Z,72796
2017-04-18T00:47:36.141Z,72798
2017-04-18T00:47:46.234Z,72794
2017-04-18T00:47:56.327Z,72798
2017-04-18T00:48:06.417Z,72797
2017-04-18T00:48:16.505Z,72797
2017-04-18T00:48:26.593Z,72802
2017-04-18T00:48:36.682Z,72797
2017-04-18T00:48:46.531Z,72793
2017-04-18T00:48:56.620Z,72792
2017-04-18T00:49:06.714Z,72796
2017-04-18T00:49:16.805Z,72795
2017-04-18T00:49:26.891Z,72793
2017-04-18T00:49:36.977Z,72789
2017-04-18T00:49:46.777Z,72790
2017-04-18T00:49:56.864Z,72800
2017-04-18T00:50:07.218Z,72799
2017-04-18T00:50:17.015Z,72798
2017-04-18T00:50:26.825Z,72798
2017-04-18T00:50:36.914Z,72796
2017-04-18T00:50:46.715Z,72803
2017-04-18T00:50:56.803Z,72802
2017-04-18T00:51:06.897Z,72803
2017-04-18T00:51:16.983Z,72805
2017-04-18T00:51:27.077Z,72801
2017-04-18T00:51:36.880Z,72801
2017-04-18T00:51:46.683Z,72805
2017-04-18T00:51:56.774Z,72808
2017-04-18T00:52:06.869Z,72809
2017-04-18T00:52:16.956Z,72810
2017-04-18T00:52:27.297Z,72810
2017-04-18T00:52:37.432Z,72809
2017-04-18T00:52:47.523Z,72809
2017-04-18T00:52:57.618Z,72810
2017-04-18T00:53:07.709Z,72812
2017-04-18T00:53:17.816Z,72811
2017-04-18T00:53:28.065Z,72809
2017-04-18T00:53:38.478Z,72813
2017-04-18T00:53:48.566Z,72814
2017-04-18T00:53:58.657Z,72820
2017-04-18T00:54:08.457Z,72815
2017-04-18T00:54:18.555Z,72813
2017-04-18T00:54:28.639Z,72816
2017-04-18T00:54:38.730Z,72815
2017-04-18T00:54:48.819Z,72815
2017-04-18T00:54:58.633Z,72815
2017-04-18T00:55:08.730Z,72815
2017-04-18T00:55:18.818Z,72808
2017-04-18T00:55:28.906Z,72811
2017-04-18T00:55:38.999Z,72806
2017-04-18T00:55:49.296Z,72810
2017-04-18T00:55:59.383Z,72812
2017-04-18T00:56:09.468Z,72813
2017-04-18T00:56:19.283Z,72810
2017-04-18T00:56:29.371Z,72812
2017-04-18T00:56:39.178Z,72813
2017-04-18T00:56:49.273Z,72811
2017-04-18T00:56:59.196Z,72810
2017-04-18T00:57:09.042Z,72812
2017-04-18T00:57:19.127Z,72812
2017-04-18T00:57:29.214Z,72809
2017-04-18T00:57:39.021Z,72809
2017-04-18T00:57:49.122Z,72810
2017-04-18T00:57:59.213Z,72806
2017-04-18T00:58:09.565Z,72810
2017-04-18T00:58:19.653Z,72807
2017-04-18T00:58:29.750Z,72810
2017-04-18T00:58:39.841Z,72810
2017-04-18T00:58:49.659Z,72814
2017-04-18T00:58:59.745Z,72812
2017-04-18T00:59:09.835Z,72813
2017-04-18T00:59:19.929Z,72814
2017-04-18T00:59:30.024Z,72812
2017-04-18T00:59:40.114Z,72811
2017-04-18T00:59:49.924Z,72810
2017-04-18T01:00:00.014Z,72805
2017-04-18T01:00:09.527Z,72806
2017-04-18T01:00:19.618Z,72806
2017-04-18T01:00:29.731Z,72804
2017-04-18T01:00:39.530Z,72806
2017-04-18T01:00:49.616Z,72802
2017-04-18T01:00:59.424Z,72799
2017-04-18T01:01:09.517Z,72802
2017-04-18T01:01:19.606Z,72799
2017-04-18T01:01:29.694Z,72801
2017-04-18T01:01:39.492Z,72799
2017-04-18T01:01:49.579Z,72800
2017-04-18T01:01:59.666Z,72801
2017-04-18T01:02:09.754Z,72805
2017-04-18T01:02:19.557Z,72806
2017-04-18T01:02:29.650Z,72804
2017-04-18T01:02:39.830Z,72806
2017-04-18T01:02:49.646Z,72804
2017-04-18T01:02:59.746Z,72809
2017-04-18T01:03:09.835Z,72808
2017-04-18T01:03:19.925Z,72806
2017-04-18T01:03:30.017Z,72804
2017-04-18T01:03:40.115Z,72801
2017-04-18T01:03:50.312Z,72801
2017-04-18T01:04:00.408Z,72800
2017-04-18T01:04:10.213Z,72808
2017-04-18T01:04:20.303Z,72803
2017-04-18T01:04:30.399Z,72804
2017-04-18T01:04:40.493Z,72803
2017-04-18T01:04:50.753Z,72802
2017-04-18T01:05:00.843Z,72797
2017-04-18T01:05:10.649Z,72803
2017-04-18T01:05:20.453Z,72802
2017-04-18T01:05:30.542Z,72807
2017-04-18T01:05:40.634Z,72806
2017-04-18T01:05:50.439Z,72804
2017-04-18T01:06:00.882Z,72802
2017-04-18T01:06:10.967Z,72805
2017-04-18T01:06:21.052Z,72805
2017-04-18T01:06:31.142Z,72806
2017-04-18T01:06:41.229Z,72804
2017-04-18T01:06:50.740Z,72805
2017-04-18T01:07:00.551Z,72804
2017-04-18T01:07:10.876Z,72805
2017-04-18T01:07:20.677Z,72804
2017-04-18T01:07:30.473Z,72805
2017-04-18T01:07:40.562Z,72804
2017-04-18T01:07:50.659Z,72805
2017-04-18T01:08:00.752Z,72805
2017-04-18T01:08:10.553Z,72806
2017-04-18T01:08:20.649Z,72806
2017-04-18T01:08:30.740Z,72805
2017-04-18T01:08:40.552Z,72804
2017-04-18T01:08:50.645Z,72802
2017-04-18T01:09:00.733Z,72805
2017-04-18T01:09:10.821Z,72803
2017-04-18T01:09:20.982Z,72805
2017-04-18T01:09:30.787Z,72800
2017-04-18T01:09:40.883Z,72799
2017-04-18T01:09:50.976Z,72796
2017-04-18T01:10:01.085Z,72797
2017-04-18T01:10:11.173Z,72799
2017-04-18T01:10:21.266Z,72796
2017-04-18T01:10:31.354Z,72796
2017-04-18T01:10:41.444Z,72797
2017-04-18T01:10:51.535Z,72794
2017-04-18T01:11:01.639Z,72795
2017-04-18T01:11:11.742Z,72796
2017-04-18T01:11:21.571Z,72797
2017-04-18T01:11:31.761Z,72793
2017-04-18T01:11:41.962Z,72793
2017-04-18T01:11:52.053Z,72789
2017-04-18T01:12:02.147Z,72793
2017-04-18T01:12:12.248Z,72798
2017-04-18T01:12:22.337Z,72794
2017-04-18T01:12:32.430Z,72796
2017-04-18T01:12:42.634Z,72797
2017-04-18T01:12:52.731Z,72798
2017-04-18T01:13:02.532Z,72797
2017-04-18T01:13:12.623Z,72795
2017-04-18T01:13:22.714Z,72797
2017-04-18T01:13:32.804Z,72796
2017-04-18T01:13:42.893Z,72797
2017-04-18T01:13:52.707Z,72796
2017-04-18T01:14:02.802Z,72802
2017-04-18T01:14:12.608Z,72800
2017-04-18T01:14:22.704Z,72800
2017-04-18T01:14:32.508Z,72800
2017-04-18T01:14:42.598Z,72798
2017-04-18T01:14:52.688Z,72794
2017-04-18T01:15:02.779Z,72796
2017-04-18T01:15:12.582Z,72795
2017-04-18T01:15:22.677Z,72799
2017-04-18T01:15:32.770Z,72798
2017-04-18T01:15:42.572Z,72792
2017-04-18T01:15:52.664Z,72795
2017-04-18T01:16:02.747Z,72793
2017-04-18T01:16:12.860Z,72795
2017-04-18T01:16:22.658Z,72793
2017-04-18T01:16:32.749Z,72790
2017-04-18T01:16:42.840Z,72791
2017-04-18T01:16:52.927Z,72788
2017-04-18T01:17:03.014Z,72792
2017-04-18T01:17:13.101Z,72787
2017-04-18T01:17:22.632Z,72791
2017-04-18T01:17:32.722Z,72790
2017-04-18T01:17:42.522Z,72786
2017-04-18T01:17:52.618Z,72790
2017-04-18T01:18:02.709Z,72786
2017-04-18T01:18:12.836Z,72788
2017-04-18T01:18:22.645Z,72792
2017-04-18T01:18:32.778Z,72788
2017-04-18T01:18:42.869Z,72790
2017-04-18T01:18:52.955Z,72790
2017-04-18T01:19:02.771Z,72794
2017-04-18T01:19:12.575Z,72790
2017-04-18T01:19:22.672Z,72790
2017-04-18T01:19:32.876Z,72793
2017-04-18T01:19:42.974Z,72794
2017-04-18T01:19:53.066Z,72794
2017-04-18T01:20:02.870Z,72797
2017-04-18T01:20:12.383Z,72799
2017-04-18T01:20:22.190Z,72796
2017-04-18T01:20:31.990Z,72794
2017-04-18T01:20:41.795Z,72791
2017-04-18T01:20:51.888Z,72792
2017-04-18T01:21:01.980Z,72792
2017-04-18T01:21:12.079Z,72796
2017-04-18T01:21:22.168Z,72791
2017-04-18T01:21:31.969Z,72790
2017-04-18T01:21:42.054Z,72793
2017-04-18T01:21:52.142Z,72792
2017-04-18T01:22:02.229Z,72792
2017-04-18T01:22:12.331Z,72793
2017-04-18T01:22:22.417Z,72792
2017-04-18T01:22:32.508Z,72793
2017-04-18T01:22:42.593Z,72794
2017-04-18T01:22:52.393Z,72791
2017-04-18T01:23:02.491Z,72793
2017-04-18T01:23:12.583Z,72792
2017-04-18T01:23:22.678Z,72796
2017-04-18T01:23:32.762Z,72798
2017-04-18T01:23:42.848Z,72793
2017-04-18T01:23:52.933Z,72796
2017-04-18T01:24:03.168Z,72796
2017-04-18T01:24:12.981Z,72791
2017-04-18T01:24:23.086Z,72792
2017-04-18T01:24:33.177Z,72792
2017-04-18T01:24:43.273Z,72792
2017-04-18T01:24:53.074Z,72794
2017-04-18T01:25:03.177Z,72793
2017-04-18T01:25:13.026Z,72792
2017-04-18T01:25:22.828Z,72794
2017-04-18T01:25:32.914Z,72793
2017-04-18T01:25:42.720Z,72790
2017-04-18T01:25:52.519Z,72791
2017-04-18T01:26:02.605Z,72791
2017-04-18T01:26:12.402Z,72793
2017-04-18T01:26:22.710Z,72789
2017-04-18T01:26:32.515Z,72795
2017-04-18T01:26:42.311Z,72797
2017-04-18T01:26:52.114Z,72794
2017-04-18T01:27:01.920Z,72794
2017-04-18T01:27:12.005Z,72794
2017-04-18T01:27:22.094Z,72792
2017-04-18T01:27:31.925Z,72795
2017-04-18T01:27:42.014Z,72794
2017-04-18T01:27:52.107Z,72791
2017-04-18T01:28:02.199Z,72794
2017-04-18T01:28:12.003Z,72793
2017-04-18T01:28:22.092Z,72797
2017-04-18T01:28:32.180Z,72794
2017-04-18T01:28:42.276Z,72795
2017-04-18T01:28:52.370Z,72794
2017-04-18T01:29:02.462Z,72793
2017-04-18T01:29:12.557Z,72792
2017-04-18T01:29:22.653Z,72794
2017-04-18T01:29:32.746Z,72792
2017-04-18T01:29:42.841Z,72792
2017-04-18T01:29:52.966Z,72790
2017-04-18T01:30:02.774Z,72794
2017-04-18T01:30:12.860Z,72793
2017-04-18T01:30:22.960Z,72792
2017-04-18T01:30:33.046Z,72790
2017-04-18T01:30:43.137Z,72787
2017-04-18T01:30:53.440Z,72790
2017-04-18T01:31:03.528Z,72794
2017-04-18T01:31:13.623Z,72793
2017-04-18T01:31:23.714Z,72794
2017-04-18T01:31:33.800Z,72790
2017-04-18T01:31:43.603Z,72792
2017-04-18T01:31:53.686Z,72792
2017-04-18T01:32:03.776Z,72794
2017-04-18T01:32:13.577Z,72795
2017-04-18T01:32:23.378Z,72794
2017-04-18T01:32:33.191Z,72799
2017-04-18T01:32:43.291Z,72797
2017-04-18T01:32:53.385Z,72798
2017-04-18T01:33:03.479Z,72797
2017-04-18T01:33:13.688Z,72803
2017-04-18T01:33:23.777Z,72793
2017-04-18T01:33:33.585Z,72793
2017-04-18T01:33:43.392Z,72795
2017-04-18T01:33:53.203Z,72793
2017-04-18T01:34:03.290Z,72797
2017-04-18T01:34:13.090Z,72791
2017-04-18T01:34:22.940Z,72796
2017-04-18T01:34:33.052Z,72792
2017-04-18T01:34:42.569Z,72794
2017-04-18T01:34:52.660Z,72794
2017-04-18T01:35:02.748Z,72793
2017-04-18T01:35:12.842Z,72795
2017-04-18T01:35:22.929Z,72796
2017-04-18T01:35:32.954Z,72798
2017-04-18T01:35:43.040Z,72800
2017-04-18T01:35:52.845Z,72799
2017-04-18T01:36:02.932Z,72797
2017-04-18T01:36:12.735Z,72795
2017-04-18T01:36:22.535Z,72796
2017-04-18T01:36:32.899Z,72794
2017-04-18T01:36:43.214Z,72790
2017-04-18T01:36:53.297Z,72795
2017-04-18T01:37:03.383Z,72791
2017-04-18T01:37:13.185Z,72797
2017-04-18T01:37:23.273Z,72789
2017-04-18T01:37:33.365Z,72790
2017-04-18T01:37:43.873Z,72789
2017-04-18T01:37:53.967Z,72795
2017-04-18T01:38:04.058Z,72797
2017-04-18T01:38:14.147Z,72800
2017-04-18T01:38:24.238Z,72800
2017-04-18T01:38:34.327Z,72798
2017-04-18T01:38:44.418Z,72801
2017-04-18T01:38:54.654Z,72799
2017-04-18T01:39:04.740Z,72801
2017-04-18T01:39:14.844Z,72804
2017-04-18T01:39:24.933Z,72800
2017-04-18T01:39:35.021Z,72803
2017-04-18T01:39:45.116Z,72802
2017-04-18T01:39:55.201Z,72800
2017-04-18T01:40:05.401Z,72799
2017-04-18T01:40:15.492Z,72799
2017-04-18T01:40:25.591Z,72803
2017-04-18T01:40:35.681Z,72801
2017-04-18T01:40:45.495Z,72799
2017-04-18T01:40:55.585Z,72800
2017-04-18T01:41:05.681Z,72800
2017-04-18T01:41:15.773Z,72797
2017-04-18T01:41:25.866Z,72795
2017-04-18T01:41:35.956Z,72797
2017-04-18T01:41:45.761Z,72795
2017-04-18T01:41:55.848Z,72794
2017-04-18T01:42:05.941Z,72798
2017-04-18T01:42:15.762Z,72800
2017-04-18T01:42:25.570Z,72800
2017-04-18T01:42:35.665Z,72802
2017-04-18T01:42:45.760Z,72802
2017-04-18T01:42:55.848Z,72801
2017-04-18T01:43:05.941Z,72800
2017-04-18T01:43:16.027Z,72801
2017-04-18T01:43:26.117Z,72800
2017-04-18T01:43:36.233Z,72800
2017-04-18T01:43:46.332Z,72800
2017-04-18T01:43:56.141Z,72797
2017-04-18T01:44:06.230Z,72799
2017-04-18T01:44:16.033Z,72801
2017-04-18T01:44:26.137Z,72798
2017-04-18T01:44:36.227Z,72797
2017-04-18T01:44:46.311Z,72795
2017-04-18T01:44:56.116Z,72795
2017-04-18T01:45:06.200Z,72791
2017-04-18T01:45:16.287Z,72795
2017-04-18T01:45:26.087Z,72792
2017-04-18T01:45:36.176Z,72793
2017-04-18T01:45:46.457Z,72797
2017-04-18T01:45:56.257Z,72792
2017-04-18T01:46:06.058Z,72793
2017-04-18T01:46:16.145Z,72790
2017-04-18T01:46:25.948Z,72787
2017-04-18T01:46:36.039Z,72791
2017-04-18T01:46:45.854Z,72789
2017-04-18T01:46:55.653Z,72791
2017-04-18T01:47:05.752Z,72793
2017-04-18T01:47:15.551Z,72792
2017-04-18T01:47:25.639Z,72791
2017-04-18T01:47:35.438Z,72791
2017-04-18T01:47:44.949Z,72786
2017-04-18T01:47:54.464Z,72790
2017-04-18T01:48:04.556Z,72788
2017-04-18T01:48:14.653Z,72787
2017-04-18T01:48:24.743Z,72786
2017-04-18T01:48:34.830Z,72786
2017-04-18T01:48:44.350Z,72780
2017-04-18T01:48:54.442Z,72780
2017-04-18T01:49:04.532Z,72786
2017-04-18T01:49:14.625Z,72780
2017-04-18T01:49:24.715Z,72783
2017-04-18T01:49:34.813Z,72785
2017-04-18T01:49:44.612Z,72783
2017-04-18T01:49:54.699Z,72776
2017-04-18T01:50:04.497Z,72782
2017-04-18T01:50:14.590Z,72785
2017-04-18T01:50:24.677Z,72780
2017-04-18T01:50:34.192Z,72781
2017-04-18T01:50:43.710Z,72782
2017-04-18T01:50:53.800Z,72784
2017-04-18T01:51:03.885Z,72786
2017-04-18T01:51:13.685Z,72787
2017-04-18T01:51:23.518Z,72785
2017-04-18T01:51:33.602Z,72785
2017-04-18T01:51:43.691Z,72787
2017-04-18T01:51:53.787Z,72785
2017-04-18T01:52:03.587Z,72782
2017-04-18T01:52:13.676Z,72781
2017-04-18T01:52:23.478Z,72778
2017-04-18T01:52:33.568Z,72782
2017-04-18T01:52:43.660Z,72783
2017-04-18T01:52:53.752Z,72782
2017-04-18T01:53:03.838Z,72783
2017-04-18T01:53:13.929Z,72783
2017-04-18T01:53:24.031Z,72785
2017-04-18T01:53:34.128Z,72781
2017-04-18T01:53:43.930Z,72780
2017-04-18T01:53:54.023Z,72778
2017-04-18T01:54:04.117Z,72774
2017-04-18T01:54:13.920Z,72773
2017-04-18T01:54:24.014Z,72773
2017-04-18T01:54:33.819Z,72770
2017-04-18T01:54:43.958Z,72772
2017-04-18T01:54:54.233Z,72763
2017-04-18T01:55:04.321Z,72764
2017-04-18T01:55:14.409Z,72771
2017-04-18T01:55:24.498Z,72764
2017-04-18T01:55:34.588Z,72769
2017-04-18T01:55:44.680Z,72762
2017-04-18T01:55:54.862Z,72762
2017-04-18T01:56:05.064Z,72765
2017-04-18T01:56:15.150Z,72760
2017-04-18T01:56:25.235Z,72771
2017-04-18T01:56:35.316Z,72770
2017-04-18T01:56:45.419Z,72775
2017-04-18T01:56:55.504Z,72772
2017-04-18T01:57:05.603Z,72774
2017-04-18T01:57:15.693Z,72771
2017-04-18T01:57:25.786Z,72774
2017-04-18T01:57:35.880Z,72775
2017-04-18T01:57:45.973Z,72779
2017-04-18T01:57:55.775Z,72779
2017-04-18T01:58:05.289Z,72776
2017-04-18T01:58:14.807Z,72780
2017-04-18T01:58:24.616Z,72777
2017-04-18T01:58:34.708Z,72778
2017-04-18T01:58:44.511Z,72779
2017-04-18T01:58:54.600Z,72784
2017-04-18T01:59:04.690Z,72781
2017-04-18T01:59:15.041Z,72781
2017-04-18T01:59:25.120Z,72780
2017-04-18T01:59:34.922Z,72776
2017-04-18T01:59:45.019Z,72781
2017-04-18T01:59:55.108Z,72780
2017-04-18T02:00:05.204Z,72778
2017-04-18T02:00:14.716Z,72778
2017-04-18T02:00:24.977Z,72782
2017-04-18T02:00:35.239Z,72784
2017-04-18T02:00:45.329Z,72782
2017-04-18T02:00:55.126Z,72786
2017-04-18T02:01:05.210Z,72781
2017-04-18T02:01:15.302Z,72782
2017-04-18T02:01:25.393Z,72787
2017-04-18T02:01:35.487Z,72783
2017-04-18T02:01:45.676Z,72777
2017-04-18T02:01:55.776Z,72781
2017-04-18T02:02:05.869Z,72780
2017-04-18T02:02:15.959Z,72783
2017-04-18T02:02:26.039Z,72780
2017-04-18T02:02:36.133Z,72780
2017-04-18T02:02:46.421Z,72784
2017-04-18T02:02:56.520Z,72788
2017-04-18T02:03:06.604Z,72783
2017-04-18T02:03:16.704Z,72783
2017-04-18T02:03:26.789Z,72785
2017-04-18T02:03:36.590Z,72786
2017-04-18T02:03:46.685Z,72784
2017-04-18T02:03:57.385Z,72785
2017-04-18T02:04:07.192Z,72786
2017-04-18T02:04:17.285Z,72787
2017-04-18T02:04:27.085Z,72788
2017-04-18T02:04:37.177Z,72782
2017-04-18T02:04:47.270Z,72785
2017-04-18T02:04:57.361Z,72786
2017-04-18T02:05:07.462Z,72788
2017-04-18T02:05:17.263Z,72786
2017-04-18T02:05:27.357Z,72784
2017-04-18T02:05:37.443Z,72784
2017-04-18T02:05:47.534Z,72785
2017-04-18T02:05:57.338Z,72787
2017-04-18T02:06:07.457Z,72786
2017-04-18T02:06:17.698Z,72786
2017-04-18T02:06:27.784Z,72787
2017-04-18T02:06:37.586Z,72789
2017-04-18T02:06:47.390Z,72789
2017-04-18T02:06:57.472Z,72789
2017-04-18T02:07:07.279Z,72789
2017-04-18T02:07:17.510Z,72789
2017-04-18T02:07:27.605Z,72792
2017-04-18T02:07:37.703Z,72790
2017-04-18T02:07:47.796Z,72787
2017-04-18T02:07:57.881Z,72788
2017-04-18T02:08:07.995Z,72787
2017-04-18T02:08:18.096Z,72788
2017-04-18T02:08:28.322Z,72786
2017-04-18T02:08:38.419Z,72786
2017-04-18T02:08:48.520Z,72785
2017-04-18T02:08:58.615Z,72788